createdAt,value
2023-04-07T00:01:44.750Z,7.50
2023-04-07T00:03:53.152Z,7.63
2023-04-07T00:08:03.559Z,6.57
2023-04-07T00:10:10.576Z,7.10
2023-04-07T00:12:15.654Z,7.47
2023-04-07T00:14:20.721Z,7.10
2023-04-07T00:16:25.937Z,7.47
2023-04-07T00:18:31.187Z,7.40
2023-04-07T00:20:38.855Z,7.78
2023-04-07T00:22:44.341Z,7.30
2023-04-07T00:24:49.445Z,7.30
2023-04-07T00:26:54.489Z,7.18
2023-04-07T00:28:59.673Z,7.68
2023-04-07T00:31:04.977Z,7.75
2023-04-07T00:33:10.284Z,7.20
2023-04-07T00:35:15.934Z,7.38
2023-04-07T00:37:24.113Z,7.80
2023-04-07T00:39:30.360Z,7.97
2023-04-07T00:41:37.594Z,7.70
2023-04-07T00:43:43.384Z,7.85
2023-04-07T00:45:48.593Z,8.30
2023-04-07T00:47:53.949Z,8.10
2023-04-07T00:49:59.292Z,7.18
2023-04-07T00:52:04.719Z,7.63
2023-04-07T00:54:13.174Z,5.95
2023-04-07T00:56:18.475Z,5.45
2023-04-07T00:58:23.747Z,6.20
2023-04-07T01:00:30.252Z,5.30
2023-04-07T01:02:44.465Z,5.07
2023-04-07T01:04:57.636Z,4.55
2023-04-07T01:07:09.537Z,4.47
2023-04-07T01:09:30.519Z,4.57
2023-04-07T01:11:45.500Z,4.25
2023-04-07T01:13:57.325Z,3.97
2023-04-07T01:16:16.347Z,3.65
2023-04-07T01:18:34.809Z,4.53
2023-04-07T01:20:41.561Z,4.20
2023-04-07T01:22:53.135Z,4.55
2023-04-07T01:25:34.654Z,4.30
2023-04-07T01:27:46.837Z,4.75
2023-04-07T01:29:56.571Z,4.50
2023-04-07T01:32:06.382Z,5.20
2023-04-07T01:34:14.621Z,4.50
2023-04-07T01:36:21.657Z,4.75
2023-04-07T01:38:29.560Z,5.70
2023-04-07T01:40:37.830Z,5.28
2023-04-07T01:42:44.403Z,5.13
2023-04-07T01:44:51.257Z,5.80
2023-04-07T01:47:00.139Z,5.80
2023-04-07T01:49:06.931Z,5.68
2023-04-07T01:51:17.681Z,5.88
2023-04-07T01:53:23.338Z,5.78
2023-04-07T01:55:28.873Z,5.72
2023-04-07T01:57:40.866Z,6.70
2023-04-07T01:59:52.765Z,6.53
2023-04-07T02:02:03.850Z,5.88
2023-04-07T02:04:17.804Z,6.45
2023-04-07T02:06:27.784Z,7.10
2023-04-07T02:08:38.615Z,7.18
2023-04-07T02:10:44.645Z,7.00
2023-04-07T02:12:51.224Z,5.95
2023-04-07T02:14:59.086Z,6.20
2023-04-07T02:17:07.736Z,6.40
2023-04-07T02:19:13.252Z,6.40
2023-04-07T02:21:19.686Z,6.40
2023-04-07T02:23:25.346Z,6.78
2023-04-07T02:25:32.520Z,6.20
2023-04-07T02:27:37.694Z,6.80
2023-04-07T02:29:42.851Z,7.05
2023-04-07T02:31:47.962Z,6.78
2023-04-07T02:33:56.479Z,6.85
2023-04-07T02:36:01.840Z,7.97
2023-04-07T02:38:06.950Z,6.85
2023-04-07T02:40:14.997Z,6.03
2023-04-07T02:42:20.171Z,6.70
2023-04-07T02:44:27.533Z,6.82
2023-04-07T02:46:32.730Z,7.78
2023-04-07T02:48:37.875Z,6.80
2023-04-07T02:50:45.738Z,7.45
2023-04-07T02:54:56.769Z,6.25
2023-04-07T02:57:04.937Z,6.55
2023-04-07T02:59:10.117Z,6.30
2023-04-07T03:01:19.989Z,6.63
2023-04-07T03:03:25.401Z,6.50
2023-04-07T03:05:59.275Z,7.30
2023-04-07T03:08:04.830Z,6.82
2023-04-07T03:10:11.753Z,6.57
2023-04-07T03:12:17.280Z,6.63
2023-04-07T03:14:22.687Z,6.85
2023-04-07T03:16:28.863Z,6.60
2023-04-07T03:18:40.589Z,6.30
2023-04-07T03:20:48.025Z,6.20
2023-04-07T03:22:57.423Z,6.82
2023-04-07T03:25:07.213Z,6.40
2023-04-07T03:27:12.814Z,6.07
2023-04-07T03:29:22.772Z,5.97
2023-04-07T03:31:28.822Z,6.53
2023-04-07T03:33:33.906Z,6.25
2023-04-07T03:35:39.223Z,6.10
2023-04-07T03:37:44.959Z,6.47
2023-04-07T03:39:56.952Z,6.20
2023-04-07T03:42:05.138Z,7.25
2023-04-07T03:44:12.374Z,7.00
2023-04-07T03:46:19.200Z,7.05
2023-04-07T03:48:24.448Z,7.03
2023-04-07T03:50:40.738Z,6.75
2023-04-07T03:52:51.884Z,7.05
2023-04-07T03:55:10.258Z,7.32
2023-04-07T03:57:15.687Z,6.80
2023-04-07T03:59:24.791Z,7.03
2023-04-07T04:01:40.687Z,7.30
2023-04-07T04:03:52.422Z,6.88
2023-04-07T04:06:06.017Z,6.85
2023-04-07T04:08:11.161Z,7.35
2023-04-07T04:10:21.300Z,7.55
2023-04-07T04:12:29.102Z,6.85
2023-04-07T04:14:42.755Z,6.70
2023-04-07T04:16:50.203Z,6.38
2023-04-07T04:19:15.733Z,6.28
2023-04-07T04:21:21.879Z,6.97
2023-04-07T04:23:27.018Z,6.28
2023-04-07T04:25:36.396Z,6.15
2023-04-07T04:27:45.243Z,6.82
2023-04-07T04:29:56.712Z,6.88
2023-04-07T04:32:12.699Z,6.68
2023-04-07T04:34:21.602Z,7.15
2023-04-07T04:36:28.323Z,7.03
2023-04-07T04:38:37.959Z,7.43
2023-04-07T04:40:56.259Z,7.25
2023-04-07T04:43:07.623Z,7.47
2023-04-07T04:45:15.239Z,6.20
2023-04-07T04:47:24.911Z,6.35
2023-04-07T04:49:30.138Z,7.05
2023-04-07T04:53:51.468Z,6.72
2023-04-07T04:55:59.799Z,7.68
2023-04-07T04:58:18.259Z,7.15
2023-04-07T05:00:26.725Z,8.10
2023-04-07T05:02:39.371Z,8.20
2023-04-07T05:04:46.378Z,7.78
2023-04-07T05:07:03.429Z,7.43
2023-04-07T05:09:13.462Z,8.13
2023-04-07T05:11:24.836Z,7.07
2023-04-07T05:13:33.153Z,7.00
2023-04-07T05:15:40.569Z,7.38
2023-04-07T05:17:50.805Z,8.07
2023-04-07T05:20:01.859Z,7.28
2023-04-07T05:22:18.840Z,7.78
2023-04-07T05:24:28.304Z,7.45
2023-04-07T05:26:39.421Z,7.38
2023-04-07T05:30:55.531Z,8.00
2023-04-07T05:33:05.634Z,6.57
2023-04-07T05:35:20.775Z,7.45
2023-04-07T05:37:31.510Z,8.02
2023-04-07T05:39:41.684Z,8.55
2023-04-07T05:41:52.929Z,8.10
2023-04-07T05:44:02.403Z,8.13
2023-04-07T05:46:11.548Z,8.00
2023-04-07T05:48:25.693Z,9.07
2023-04-07T05:50:32.281Z,8.30
2023-04-07T05:52:40.076Z,8.32
2023-04-07T05:54:56.612Z,9.30
2023-04-07T05:57:10.755Z,9.57
2023-04-07T05:59:21.530Z,11.10
2023-04-07T06:01:28.060Z,10.60
2023-04-07T06:03:33.660Z,10.95
2023-04-07T06:05:49.226Z,11.00
2023-04-07T06:07:57.269Z,12.25
2023-04-07T06:10:05.297Z,11.45
2023-04-07T06:12:13.557Z,11.70
2023-04-07T06:14:20.920Z,11.98
2023-04-07T06:16:26.223Z,12.60
2023-04-07T06:18:31.333Z,13.15
2023-04-07T06:20:37.167Z,12.60
2023-04-07T06:22:42.334Z,12.27
2023-04-07T06:24:47.499Z,13.88
2023-04-07T06:26:52.628Z,12.27
2023-04-07T06:29:02.432Z,13.52
2023-04-07T06:31:07.905Z,13.73
2023-04-07T06:33:14.280Z,12.45
2023-04-07T06:35:19.961Z,14.57
2023-04-07T06:37:25.284Z,13.23
2023-04-07T06:39:31.012Z,14.07
2023-04-07T06:41:36.840Z,14.43
2023-04-07T06:43:42.024Z,14.20
2023-04-07T06:45:49.693Z,14.48
2023-04-07T06:47:54.929Z,14.70
2023-04-07T06:50:00.039Z,14.68
2023-04-07T06:52:05.150Z,14.77
2023-04-07T06:54:13.033Z,15.13
2023-04-07T06:56:18.400Z,13.90
2023-04-07T06:58:23.487Z,14.95
2023-04-07T07:00:31.780Z,14.68
2023-04-07T07:02:39.633Z,15.60
2023-04-07T07:04:44.932Z,14.07
2023-04-07T07:06:50.233Z,13.82
2023-04-07T07:08:55.391Z,14.32
2023-04-07T07:11:00.836Z,14.07
2023-04-07T07:13:05.885Z,14.10
2023-04-07T07:15:12.299Z,14.00
2023-04-07T07:17:17.485Z,14.00
2023-04-07T07:19:25.247Z,14.07
2023-04-07T07:21:31.627Z,13.75
2023-04-07T07:23:36.855Z,12.13
2023-04-07T07:25:42.243Z,13.13
2023-04-07T07:27:47.385Z,13.27
2023-04-07T07:29:52.526Z,12.75
2023-04-07T07:31:57.668Z,13.02
2023-04-07T07:34:03.060Z,11.77
2023-04-07T07:36:11.562Z,12.35
2023-04-07T07:38:16.706Z,11.57
2023-04-07T07:40:22.206Z,12.23
2023-04-07T07:42:27.300Z,11.57
2023-04-07T07:44:32.686Z,11.88
2023-04-07T07:46:37.922Z,11.57
2023-04-07T07:48:43.052Z,11.55
2023-04-07T07:50:49.283Z,11.32
2023-04-07T07:52:56.922Z,11.95
2023-04-07T07:55:02.039Z,12.43
2023-04-07T07:57:07.173Z,11.90
2023-04-07T07:59:13.053Z,11.75
2023-04-07T08:01:18.365Z,12.68
2023-04-07T08:03:23.506Z,11.65
2023-04-07T08:05:28.830Z,11.15
2023-04-07T08:07:33.959Z,11.30
2023-04-07T08:09:41.818Z,12.15
2023-04-07T08:11:48.528Z,12.50
2023-04-07T08:13:54.153Z,12.05
2023-04-07T08:15:59.504Z,11.45
2023-04-07T08:18:06.514Z,11.00
2023-04-07T08:20:13.914Z,11.27
2023-04-07T08:22:20.027Z,11.77
2023-04-07T08:24:25.165Z,10.95
2023-04-07T08:26:33.012Z,12.10
2023-04-07T08:28:38.289Z,11.18
2023-04-07T08:30:43.378Z,11.18
2023-04-07T08:32:49.086Z,10.27
2023-04-07T08:34:54.148Z,10.77
2023-04-07T08:36:59.435Z,11.10
2023-04-07T08:39:05.883Z,11.00
2023-04-07T08:41:15.389Z,11.73
2023-04-07T08:43:24.719Z,11.70
2023-04-07T08:45:32.944Z,11.43
2023-04-07T08:47:40.033Z,12.02
2023-04-07T08:49:47.747Z,11.80
2023-04-07T08:51:55.822Z,12.13
2023-04-07T08:54:08.694Z,11.15
2023-04-07T08:56:15.669Z,12.05
2023-04-07T08:58:23.905Z,12.10
2023-04-07T09:00:29.439Z,12.48
2023-04-07T09:02:36.273Z,12.82
2023-04-07T09:04:42.499Z,11.80
2023-04-07T09:06:47.555Z,12.48
2023-04-07T09:08:52.677Z,11.27
2023-04-07T09:10:59.541Z,12.35
2023-04-07T09:13:04.634Z,13.48
2023-04-07T09:15:13.584Z,12.10
2023-04-07T09:17:18.688Z,12.57
2023-04-07T09:19:23.896Z,12.32
2023-04-07T09:21:29.572Z,11.63
2023-04-07T09:23:37.646Z,12.50
2023-04-07T09:25:42.869Z,12.25
2023-04-07T09:27:59.560Z,13.40
2023-04-07T09:30:18.253Z,12.05
2023-04-07T09:32:41.702Z,10.43
2023-04-07T09:34:47.179Z,10.93
2023-04-07T09:36:52.257Z,11.25
2023-04-07T09:38:57.380Z,10.73
2023-04-07T09:41:10.716Z,11.40
2023-04-07T09:43:20.878Z,10.90
2023-04-07T09:45:36.582Z,11.75
2023-04-07T09:47:42.479Z,11.85
2023-04-07T09:49:55.353Z,10.77
2023-04-07T09:52:05.194Z,12.13
2023-04-07T09:54:10.754Z,11.48
2023-04-07T09:56:17.233Z,11.90
2023-04-07T09:58:23.288Z,11.77
2023-04-07T10:00:31.772Z,12.13
2023-04-07T10:02:37.462Z,11.57
2023-04-07T10:04:44.200Z,10.52
2023-04-07T10:06:50.746Z,11.35
2023-04-07T10:08:55.824Z,11.27
2023-04-07T10:11:02.180Z,12.05
2023-04-07T10:13:09.377Z,10.45
2023-04-07T10:15:17.150Z,11.57
2023-04-07T10:17:26.729Z,11.20
2023-04-07T10:19:35.504Z,11.85
2023-04-07T10:21:46.618Z,12.02
2023-04-07T10:24:02.590Z,12.18
2023-04-07T10:26:10.710Z,12.20
2023-04-07T10:28:17.280Z,11.52
2023-04-07T10:30:28.712Z,11.77
2023-04-07T10:32:49.138Z,12.07
2023-04-07T10:35:08.118Z,11.98
2023-04-07T10:37:19.445Z,11.57
2023-04-07T10:39:32.030Z,12.25
2023-04-07T10:41:39.504Z,12.50
2023-04-07T10:43:45.299Z,13.63
2023-04-07T10:46:00.116Z,12.02
2023-04-07T10:48:18.523Z,12.30
2023-04-07T10:50:25.965Z,12.38
2023-04-07T10:52:31.460Z,12.10
2023-04-07T10:54:37.168Z,12.32
2023-04-07T10:57:18.235Z,12.10
2023-04-07T10:59:28.282Z,12.75
2023-04-07T11:01:47.548Z,12.75
2023-04-07T11:04:05.006Z,12.68
2023-04-07T11:06:12.976Z,11.05
2023-04-07T11:08:46.724Z,9.68
2023-04-07T11:10:53.480Z,10.93
2023-04-07T11:13:05.564Z,10.73
2023-04-07T11:15:24.811Z,10.95
2023-04-07T11:17:29.998Z,9.20
2023-04-07T11:19:54.487Z,10.35
2023-04-07T11:22:29.387Z,7.95
2023-04-07T11:24:37.829Z,8.82
2023-04-07T11:26:44.992Z,7.93
2023-04-07T11:28:51.616Z,8.20
2023-04-07T11:30:58.504Z,7.90
2023-04-07T11:33:04.319Z,7.13
2023-04-07T11:35:13.501Z,7.70
2023-04-07T11:37:29.208Z,8.05
2023-04-07T11:39:38.178Z,8.02
2023-04-07T11:41:57.300Z,7.72
2023-04-07T11:44:24.290Z,7.93
2023-04-07T11:46:29.744Z,8.60
2023-04-07T11:48:36.506Z,7.65
2023-04-07T11:50:45.447Z,7.13
2023-04-07T11:52:51.815Z,7.95
2023-04-07T11:54:59.464Z,7.72
2023-04-07T11:59:10.027Z,7.88
2023-04-07T12:01:15.094Z,8.25
2023-04-07T12:03:20.471Z,7.75
2023-04-07T12:05:26.005Z,8.05
2023-04-07T12:07:34.173Z,7.97
2023-04-07T12:09:39.295Z,7.53
2023-04-07T12:11:53.119Z,7.35
2023-04-07T12:13:59.033Z,7.63
2023-04-07T12:16:04.417Z,7.35
2023-04-07T12:18:09.560Z,8.23
2023-04-07T12:20:15.640Z,8.98
2023-04-07T12:22:21.120Z,7.97
2023-04-07T12:24:28.834Z,7.88
2023-04-07T12:28:38.942Z,8.02
2023-04-07T12:30:44.704Z,7.45
2023-04-07T12:32:49.745Z,7.65
2023-04-07T12:34:55.067Z,8.18
2023-04-07T12:37:00.574Z,7.20
2023-04-07T12:39:05.995Z,7.55
2023-04-07T12:41:13.695Z,7.32
2023-04-07T12:45:23.952Z,7.05
2023-04-07T12:47:28.997Z,7.43
2023-04-07T12:49:34.206Z,7.60
2023-04-07T12:51:40.431Z,7.35
2023-04-07T12:53:45.586Z,7.60
2023-04-07T12:55:51.405Z,8.05
2023-04-07T12:57:59.225Z,8.40
2023-04-07T13:00:09.931Z,7.72
2023-04-07T13:02:18.321Z,7.38
2023-04-07T13:04:24.742Z,6.43
2023-04-07T13:06:30.891Z,6.63
2023-04-07T13:08:36.445Z,5.35
2023-04-07T13:10:41.620Z,5.28
2023-04-07T13:12:46.703Z,5.60
2023-04-07T13:15:00.074Z,5.45
2023-04-07T13:17:05.808Z,5.65
2023-04-07T13:19:11.177Z,5.20
2023-04-07T13:23:26.370Z,3.90
2023-04-07T13:25:31.910Z,4.47
2023-04-07T13:27:37.004Z,4.57
2023-04-07T13:29:42.242Z,4.60
2023-04-07T13:31:51.342Z,3.67
2023-04-07T13:33:56.507Z,2.63
2023-04-07T13:36:01.650Z,2.92
2023-04-07T13:38:07.323Z,2.40
2023-04-07T13:40:13.993Z,2.97
2023-04-07T13:42:21.006Z,2.80
2023-04-07T13:44:26.655Z,2.70
2023-04-07T13:46:31.955Z,2.58
2023-04-07T13:48:39.745Z,3.05
2023-04-07T13:52:49.760Z,2.03
2023-04-07T13:54:54.825Z,1.92
2023-04-07T13:56:59.883Z,1.80
2023-04-07T13:59:05.247Z,1.00
2023-04-07T14:01:10.434Z,0.80
2023-04-07T14:03:15.851Z,1.00
2023-04-07T14:05:23.610Z,0.90
2023-04-07T14:09:33.843Z,1.20
2023-04-07T14:11:39.790Z,1.40
2023-04-07T14:13:44.860Z,1.65
2023-04-07T14:15:50.529Z,1.50
2023-04-07T14:17:55.617Z,1.70
2023-04-07T14:20:01.192Z,1.48
2023-04-07T14:22:08.826Z,2.00
2023-04-07T14:26:18.782Z,1.65
2023-04-07T14:28:24.189Z,1.92
2023-04-07T14:30:30.984Z,1.60
2023-04-07T14:32:36.479Z,1.75
2023-04-07T14:34:41.970Z,1.95
2023-04-07T14:36:56.478Z,1.55
2023-04-07T14:39:04.337Z,1.90
2023-04-07T14:41:10.517Z,1.88
2023-04-07T14:43:15.674Z,2.00
2023-04-07T14:45:20.869Z,2.55
2023-04-07T14:47:26.006Z,2.25
2023-04-07T14:49:31.130Z,2.08
2023-04-07T14:51:37.078Z,1.75
2023-04-07T14:53:43.484Z,1.70
2023-04-07T14:55:51.406Z,2.83
2023-04-07T14:57:56.882Z,2.00
2023-04-07T15:00:01.933Z,3.20
2023-04-07T15:02:07.559Z,3.30
2023-04-07T15:04:13.613Z,3.95
2023-04-07T15:06:19.057Z,3.90
2023-04-07T15:08:24.140Z,3.60
2023-04-07T15:10:30.122Z,3.60
2023-04-07T15:12:38.080Z,3.75
2023-04-07T15:16:50.515Z,3.75
2023-04-07T15:18:55.744Z,4.17
2023-04-07T15:21:00.906Z,3.80
2023-04-07T15:23:06.435Z,3.53
2023-04-07T15:25:11.765Z,3.70
2023-04-07T15:27:17.197Z,3.50
2023-04-07T15:29:24.813Z,3.60
2023-04-07T15:31:30.369Z,3.30
2023-04-07T15:33:35.573Z,3.33
2023-04-07T15:35:40.600Z,3.35
2023-04-07T15:37:46.745Z,2.97
2023-04-07T15:39:53.291Z,3.25
2023-04-07T15:41:58.610Z,3.25
2023-04-07T15:44:04.327Z,3.40
2023-04-07T15:46:12.326Z,3.17
2023-04-07T15:48:17.793Z,3.42
2023-04-07T15:50:23.408Z,3.17
2023-04-07T15:52:29.105Z,3.85
2023-04-07T15:54:34.628Z,3.67
2023-04-07T15:56:39.884Z,3.65
2023-04-07T15:58:46.354Z,5.10
2023-04-07T16:00:51.551Z,4.80
2023-04-07T16:02:59.489Z,4.38
2023-04-07T16:05:05.392Z,4.25
2023-04-07T16:07:10.781Z,4.20
2023-04-07T16:09:16.332Z,4.00
2023-04-07T16:11:21.538Z,4.20
2023-04-07T16:13:27.230Z,4.30
2023-04-07T16:15:40.162Z,4.40
2023-04-07T16:17:50.626Z,4.00
2023-04-07T16:19:58.237Z,4.60
2023-04-07T16:22:06.369Z,3.67
2023-04-07T16:24:11.658Z,3.97
2023-04-07T16:26:16.765Z,4.70
2023-04-07T16:28:22.280Z,4.65
2023-04-07T16:30:27.409Z,4.78
2023-04-07T16:32:32.469Z,4.85
2023-04-07T16:34:38.522Z,4.80
2023-04-07T16:36:47.621Z,4.30
2023-04-07T16:38:53.205Z,5.25
2023-04-07T16:41:04.602Z,4.93
2023-04-07T16:43:10.139Z,4.63
2023-04-07T16:45:15.454Z,4.85
2023-04-07T16:47:20.588Z,4.47
2023-04-07T16:49:25.834Z,4.28
2023-04-07T16:51:32.008Z,4.72
2023-04-07T16:53:40.060Z,4.60
2023-04-07T16:55:45.154Z,4.50
2023-04-07T16:57:50.231Z,4.63
2023-04-07T16:59:55.589Z,4.30
2023-04-07T17:02:00.761Z,4.55
2023-04-07T17:04:06.588Z,4.75
2023-04-07T17:06:12.717Z,4.20
2023-04-07T17:08:18.470Z,4.10
2023-04-07T17:10:27.418Z,4.50
2023-04-07T17:12:33.567Z,4.90
2023-04-07T17:14:43.487Z,4.32
2023-04-07T17:16:48.526Z,4.28
2023-04-07T17:18:53.849Z,4.43
2023-04-07T17:20:59.098Z,5.03
2023-04-07T17:23:04.356Z,5.05
2023-04-07T17:25:11.529Z,4.82
2023-04-07T17:27:19.130Z,4.82
2023-04-07T17:31:35.966Z,4.57
2023-04-07T17:33:41.165Z,5.10
2023-04-07T17:35:51.077Z,4.97
2023-04-07T17:37:56.709Z,5.25
2023-04-07T17:40:04.479Z,5.53
2023-04-07T17:44:20.193Z,5.10
2023-04-07T17:46:27.693Z,5.35
2023-04-07T17:48:33.858Z,5.38
2023-04-07T17:50:40.487Z,5.47
2023-04-07T17:52:45.749Z,5.45
2023-04-07T17:54:51.143Z,5.53
2023-04-07T17:56:56.455Z,6.10
2023-04-07T17:59:01.652Z,5.55
2023-04-07T18:01:11.780Z,5.70
2023-04-07T18:03:17.893Z,6.13
2023-04-07T18:05:23.686Z,5.40
2023-04-07T18:07:29.436Z,5.45
2023-04-07T18:09:34.714Z,5.45
2023-04-07T18:11:40.275Z,5.70
2023-04-07T18:13:45.341Z,5.88
2023-04-07T18:15:51.189Z,5.95
2023-04-07T18:17:58.894Z,5.95
2023-04-07T18:20:04.850Z,5.70
2023-04-07T18:22:10.140Z,5.40
2023-04-07T18:24:15.171Z,6.80
2023-04-07T18:26:20.876Z,5.80
2023-04-07T18:28:25.987Z,6.55
2023-04-07T18:30:31.203Z,6.78
2023-04-07T18:32:36.242Z,5.78
2023-04-07T18:34:45.044Z,6.50
2023-04-07T18:36:51.877Z,7.25
2023-04-07T18:38:57.772Z,7.78
2023-04-07T18:41:03.356Z,6.38
2023-04-07T18:43:08.407Z,7.43
2023-04-07T18:45:14.197Z,7.32
2023-04-07T18:47:19.471Z,6.43
2023-04-07T18:49:25.932Z,6.18
2023-04-07T18:51:35.277Z,7.10
2023-04-07T18:53:40.491Z,7.43
2023-04-07T18:55:45.605Z,8.25
2023-04-07T18:57:50.632Z,6.93
2023-04-07T18:59:55.735Z,7.20
2023-04-07T19:02:01.012Z,7.28
2023-04-07T19:04:06.297Z,7.88
2023-04-07T19:06:12.367Z,7.00
2023-04-07T19:08:20.545Z,6.63
2023-04-07T19:10:26.124Z,7.50
2023-04-07T19:12:31.175Z,8.02
2023-04-07T19:14:36.333Z,8.30
2023-04-07T19:16:42.081Z,9.45
2023-04-07T19:18:47.623Z,8.07
2023-04-07T19:20:52.726Z,7.93
2023-04-07T19:22:57.781Z,7.13
2023-04-07T19:25:05.509Z,7.28
2023-04-07T19:27:12.151Z,7.10
2023-04-07T19:29:17.541Z,7.55
2023-04-07T19:31:22.668Z,7.38
2023-04-07T19:33:27.865Z,6.72
2023-04-07T19:35:34.709Z,7.03
2023-04-07T19:37:40.681Z,7.07
2023-04-07T19:39:55.722Z,6.43
2023-04-07T19:42:16.060Z,7.03
2023-04-07T19:44:24.949Z,6.93
2023-04-07T19:46:30.451Z,6.80
2023-04-07T19:48:37.314Z,6.15
2023-04-07T19:50:43.902Z,6.95
2023-04-07T19:52:50.601Z,6.55
2023-04-07T19:54:56.267Z,6.03
2023-04-07T19:57:02.039Z,6.10
2023-04-07T19:59:10.532Z,6.70
2023-04-07T20:01:19.932Z,5.88
2023-04-07T20:03:25.833Z,6.80
2023-04-07T20:05:30.910Z,6.03
2023-04-07T20:07:36.547Z,6.72
2023-04-07T20:09:42.468Z,6.18
2023-04-07T20:11:48.444Z,6.00
2023-04-07T20:13:53.552Z,6.40
2023-04-07T20:16:02.158Z,5.57
2023-04-07T20:18:07.277Z,6.80
2023-04-07T20:20:14.254Z,6.18
2023-04-07T20:22:19.272Z,5.10
2023-04-07T20:24:24.436Z,6.93
2023-04-07T20:26:29.635Z,5.75
2023-04-07T20:28:35.616Z,6.00
2023-04-07T20:30:41.376Z,5.85
2023-04-07T20:32:49.049Z,4.95
2023-04-07T20:34:54.269Z,5.78
2023-04-07T20:37:00.328Z,4.82
2023-04-07T20:39:05.647Z,6.93
2023-04-07T20:41:15.080Z,6.00
2023-04-07T20:43:22.335Z,8.02
2023-04-07T20:45:27.849Z,4.95
2023-04-07T20:47:36.172Z,6.28
2023-04-07T20:49:44.429Z,6.82
2023-04-07T20:53:57.819Z,7.00
2023-04-07T20:56:03.432Z,5.20
2023-04-07T20:58:08.532Z,6.47
2023-04-07T21:00:14.541Z,7.35
2023-04-07T21:02:19.669Z,6.45
2023-04-07T21:04:25.101Z,7.18
2023-04-07T21:06:32.837Z,6.78
2023-04-07T21:08:37.909Z,5.38
2023-04-07T21:10:42.931Z,6.78
2023-04-07T21:12:48.341Z,6.55
2023-04-07T21:14:55.889Z,6.10
2023-04-07T21:17:01.541Z,8.13
2023-04-07T21:19:06.731Z,7.05
2023-04-07T21:21:12.470Z,6.32
2023-04-07T21:23:20.240Z,7.65
2023-04-07T21:25:25.586Z,6.30
2023-04-07T21:27:32.484Z,7.55
2023-04-07T21:29:37.557Z,5.45
2023-04-07T21:31:43.100Z,5.07
2023-04-07T21:33:48.242Z,5.00
2023-04-07T21:35:55.270Z,4.95
2023-04-07T21:38:00.339Z,6.55
2023-04-07T21:40:09.779Z,6.40
2023-04-07T21:42:17.888Z,6.43
2023-04-07T21:44:22.990Z,6.50
2023-04-07T21:46:29.070Z,7.22
2023-04-07T21:48:34.974Z,8.20
2023-04-07T21:50:40.472Z,7.70
2023-04-07T21:52:45.929Z,7.45
2023-04-07T21:54:50.977Z,7.40
2023-04-07T21:56:59.793Z,7.32
2023-04-07T21:59:05.105Z,8.27
2023-04-07T22:01:10.517Z,7.95
2023-04-07T22:03:16.962Z,7.05
2023-04-07T22:05:23.055Z,6.47
2023-04-07T22:07:28.225Z,7.38
2023-04-07T22:09:33.642Z,8.30
2023-04-07T22:11:38.692Z,11.15
2023-04-07T22:13:46.605Z,11.38
2023-04-07T22:17:59.238Z,11.73
2023-04-07T22:20:05.257Z,11.60
2023-04-07T22:22:10.599Z,11.35
2023-04-07T22:24:15.749Z,12.40
2023-04-07T22:26:20.947Z,12.25
2023-04-07T22:28:25.966Z,12.02
2023-04-07T22:30:33.600Z,13.55
2023-04-07T22:32:41.667Z,11.95
2023-04-07T22:34:47.616Z,11.93
2023-04-07T22:36:52.695Z,8.27
2023-04-07T22:38:57.720Z,7.35
2023-04-07T22:41:02.741Z,7.55
2023-04-07T22:43:07.791Z,5.47
2023-04-07T22:45:13.647Z,7.70
2023-04-07T22:47:21.455Z,9.52
2023-04-07T22:49:26.862Z,7.82
2023-04-07T22:51:32.059Z,6.45
2023-04-07T22:53:37.154Z,7.40
2023-04-07T22:55:42.214Z,6.40
2023-04-07T22:57:47.389Z,5.53
2023-04-07T22:59:52.709Z,8.18
2023-04-07T23:01:58.025Z,5.35
2023-04-07T23:04:06.020Z,5.32
2023-04-07T23:08:16.384Z,4.60
2023-04-07T23:10:21.981Z,5.00
2023-04-07T23:12:27.417Z,6.07
2023-04-07T23:14:32.482Z,5.60
2023-04-07T23:16:37.920Z,6.10
2023-04-07T23:18:43.357Z,6.13
2023-04-07T23:20:55.567Z,6.25
2023-04-07T23:23:00.801Z,5.63
2023-04-07T23:25:05.937Z,6.55
2023-04-07T23:27:13.786Z,5.75
2023-04-07T23:29:18.828Z,6.50
2023-04-07T23:31:24.038Z,5.78
2023-04-07T23:33:29.128Z,6.70
2023-04-07T23:35:34.405Z,6.18
2023-04-07T23:37:42.438Z,6.03
2023-04-07T23:39:47.479Z,6.35
2023-04-07T23:41:52.747Z,5.72
2023-04-07T23:43:58.425Z,6.03
2023-04-07T23:46:03.631Z,5.68
2023-04-07T23:48:09.703Z,5.93
2023-04-07T23:50:17.291Z,6.32
2023-04-07T23:52:23.638Z,7.07
2023-04-07T23:54:31.352Z,7.38
2023-04-07T23:56:37.385Z,6.00
2023-04-07T23:58:44.584Z,6.30
